Crab Orchard, KY (40419)

8:18 PM EDT on July 24, 2014 (GMT -0400)
K. Bracketts Weather Station 39 N (KKYCRABO2) Elev 952 ft | 37.47 °N, 84.51 °W | Change Station

Current weather conditions updated 4 seconds ago

Partly Cloudy
Partly Cloudy
71.4 °F
Feels Like 71.4 °F
N
0.0
Wind Variable Wind from North
Gusts 1.6 mph

Tomorrow is forecast to be Warmer than today.

Today
High -- | Low -- °F
--% Chance of Precip.
Yesterday
High -- | Low -- °F
Precip. -- in
6:35 AM 8:52 PM
Waning Crescent, 3% visible
Pressure 30.02 in
Visibility 10.0 miles
Clouds Mostly Cloudy 5000 ft
Dew Point 71 °F
Humidity 99%
Rainfall 0.02 in
Snow Depth Not available.
UV 0 out of 12
Pollen 2.20 out of 12
Air Quality Not available.
Flu Activity Not available.
METAR KI39 250015Z AUTO 12003KT 10SM BKN050 21/16 A3002 RMK AO2

More Conditions Fewer Conditions

Pressure 30.02 in
Visibility 10.0 miles
Clouds Mostly Cloudy 5000 ft
Dew Point 71 °F
Humidity 99%
Rainfall 0.02 in
Snow Depth Not available.
UV 0 out of 12
Pollen 2.20 out of 12
Air Quality Not available.
Flu Activity Not available.
METAR KI39 250015Z AUTO 12003KT 10SM BKN050 21/16 A3002 RMK AO2

More Conditions Fewer Conditions

10-Day Weather Forecast

Almanac

Astronomy

Jul. 24, 2014 Rise Set
Actual Time 6:35 AM EDT 8:52 PM EDT
Civil Twilight 6:06 AM EDT 9:22 PM EDT
Nautical Twilight 5:29 AM EDT 9:58 PM EDT
Astronomical Twilight 4:50 AM EDT 10:38 PM EDT
Moon 4:42 AM EDT (7/24) 7:07 PM EDT (7/24)
Length of Visible Light 15h 16m
Length of Day
14h 17m
Tomorrow will be 1m 35s shorter.
Waning Crescent, 3% of the Moon is Illuminated
Today
Waning Crescent
Jul 26
New
Aug 3
First Quarter
Aug 10
Full
Aug 17
Last Quarter

Today's Extremes

State Highs State Lows

Community

WunderPhotos

Upload Photos

1,737,169 photos uploaded!

Nearby

Snow Depth

Station Depth Elevation
No new snow has been reported.

Earthquake Activity

City Distance Mag. Time & Date
No recent earthquake activity has been reported nearby.
Minimum magnitude displayed is 2.5.

Coastal Water Temperatures

Place Temperature
No Stations Reporting

Nearby Weather Stations

Station Location Temp. Heat Index Dew Point Humidity Wind Precip. Elev Updated Type
K. Bracketts Weather Station 39 N, Crab Orchard, KY 71.4 °F - 71 °F 99% North  at  0.0 mph 0.00 in / hr 952 ft 8:18 PM EDT Rapid Fire
Bratcher Lane, Berea, KY 74.5 °F 77 °F 62 °F 66% ESE  at  0.0 mph - / hr 1001 ft 8:09 PM EDT Normal
HALLS BACKYARD WEATHER, SCIENCE HILL, KY 69.3 °F - 61 °F 76% West  at  0.0 mph 0.00 in / hr 1076 ft 8:18 PM EDT Normal
Berwick Drive, Danville, KY 73.5 °F 76 °F 60 °F 63% NE  at  0.0 mph 0.00 in / hr 980 ft 8:15 PM EDT Normal
RMR - Somerset, Ferguson, KY 71.9 °F 73 °F 65 °F 78% North  at  0.0 mph 0.00 in / hr 909 ft 8:15 PM EDT Normal
City Hall, Richmond, KY 73.2 °F 76 °F 60 °F 63% ENE  at  3.0 mph 0.00 in / hr 974 ft 8:18 PM EDT Rapid Fire

Show More Stations Show Fewer Stations